Time;durP1;ratioP1;P1;durP2;ratioP2;P2;SDS_P1;SDS_P2;PMS_P1;PMS_P2;Temp;Humidity;BMP_temperature;BMP_pressure;BME280_temperature;BME280_humidity;BME280_pressure;Samples;Min_cycle;Max_cycle;Signal;HPM_P1;HPM_P2
2023/01/07 00:01:27;;;;;;;23.10;3.33;;;4.70;99.90;;;3.07;100.00;101300.09;5005990;28;20034;-81
2023/01/07 00:04:00;;;;;;;21.27;3.60;;;4.30;99.90;;;2.93;100.00;101299.28;4990974;28;20026;-81
2023/01/07 00:06:33;;;;;;;26.60;3.03;;;4.50;99.90;;;2.84;100.00;101297.59;4989034;28;20498;-82
2023/01/07 00:09:11;;;;;;;17.05;3.17;;;4.40;99.90;;;2.71;100.00;101303.75;5007133;28;20045;-82
2023/01/07 00:11:47;;;;;;;24.55;4.90;;;4.30;99.90;;;2.61;100.00;101302.91;4986288;28;20030;-82
2023/01/07 00:14:14;;;;;;;;;;;4.30;99.90;;;2.49;100.00;101306.44;5004700;28;20113;-82
2023/01/07 00:16:40;;;;;;;21.38;4.43;;;4.10;99.90;;;2.45;100.00;101312.53;4989807;28;19916;-82
2023/01/07 00:19:12;;;;;;;20.20;3.47;;;4.10;99.90;;;2.46;100.00;101296.94;5002796;28;20025;-83
2023/01/07 00:21:38;;;;;;;26.23;4.40;;;4.10;99.90;;;2.50;100.00;101289.97;5004938;28;20022;-81
2023/01/07 00:24:06;;;;;;;23.92;4.28;;;4.10;99.90;;;2.56;100.00;101286.47;5004295;28;20505;-82
2023/01/07 00:26:40;;;;;;;35.10;4.65;;;4.10;99.90;;;2.58;100.00;101287.34;4989659;28;20053;-81
2023/01/07 00:29:07;;;;;;;28.05;4.20;;;4.20;99.90;;;2.47;100.00;101290.84;5005887;28;20018;-82
2023/01/07 00:31:37;;;;;;;20.08;4.43;;;4.10;99.90;;;2.40;100.00;101285.69;4987740;28;20025;-81
2023/01/07 00:34:12;;;;;;;28.50;5.25;;;3.90;99.90;;;2.21;100.00;101279.69;5022447;28;20108;-82
2023/01/07 00:36:50;;;;;;;31.80;6.65;;;3.90;99.90;;;2.19;100.00;101286.63;5003863;28;20018;-83
2023/01/07 00:39:20;;;;;;;30.52;6.93;;;3.90;99.90;;;2.14;100.00;101283.16;5004400;28;20033;-82
2023/01/07 00:44:36;;;;;;;17.33;4.40;;;3.70;99.90;;;2.05;100.00;101284.06;5005430;28;20149;-82
2023/01/07 00:47:02;;;;;;;18.58;4.88;;;3.70;99.90;;;2.07;100.00;101284.91;5006272;28;20117;-81
2023/01/07 00:49:28;;;;;;;26.63;5.30;;;3.80;99.90;;;2.14;100.00;101285.75;5021873;28;20035;-81
2023/01/07 00:51:59;;;;;;;24.25;5.03;;;3.70;99.90;;;2.12;100.00;101296.19;5003719;28;20084;-82
2023/01/07 00:54:24;;;;;;;23.65;5.28;;;3.80;99.90;;;2.13;100.00;101297.88;4994966;28;20413;-82
2023/01/07 00:56:50;;;;;;;30.85;5.43;;;3.80;99.90;;;2.20;100.00;101303.94;5003032;28;20026;-80
2023/01/07 00:59:16;;;;;;;29.00;4.82;;;3.90;99.90;;;2.23;100.00;101299.59;4986880;28;20014;-81
2023/01/07 01:01:42;;;;;;;25.63;4.50;;;3.90;99.90;;;2.30;100.00;101300.44;5002740;28;20108;-81
2023/01/07 01:04:08;;;;;;;25.15;4.80;;;4.00;99.90;;;2.34;100.00;101290.91;5002133;28;20025;-80
2023/01/07 01:06:41;;;;;;;21.13;5.35;;;4.00;99.90;;;2.36;100.00;101292.63;5001946;28;20085;-80
2023/01/07 01:09:09;;;;;;;23.75;5.35;;;4.00;99.90;;;2.43;100.00;101301.25;5003144;28;20060;-82
2023/01/07 01:11:35;;;;;;;30.42;5.30;;;4.00;99.90;;;2.52;100.00;101296.03;4994950;28;20026;-82
2023/01/07 01:14:01;;;;;;;29.23;4.95;;;4.10;99.90;;;2.58;100.00;101298.59;5004285;28;20052;-81
2023/01/07 01:16:31;;;;;;;24.20;5.55;;;4.10;99.90;;;2.65;100.00;101304.63;4987532;28;20040;-82
2023/01/07 01:18:57;;;;;;;23.13;5.45;;;4.20;99.90;;;2.66;100.00;101289.03;5022102;28;20053;-82
2023/01/07 01:21:22;;;;;;;29.15;6.18;;;4.20;99.90;;;2.62;100.00;101295.13;5002909;28;20026;-80
2023/01/07 01:23:48;;;;;;;37.42;8.85;;;4.20;99.90;;;2.59;100.00;101302.06;4987379;28;20610;-81
2023/01/07 01:26:16;;;;;;;30.02;7.25;;;4.10;99.90;;;2.55;100.00;101295.13;4988716;28;20118;-80
2023/01/07 01:28:49;;;;;;;29.80;9.57;;;4.10;99.90;;;2.53;100.00;101302.97;5002294;28;20037;-81
2023/01/07 01:31:15;;;;;;;41.17;8.90;;;4.10;99.90;;;2.55;100.00;101305.53;5005266;28;20022;-82
2023/01/07 01:33:41;;;;;;;33.38;7.18;;;4.10;99.90;;;2.56;100.00;101305.53;5004920;28;20141;-81
2023/01/07 01:36:12;;;;;;;32.55;7.22;;;4.20;99.90;;;2.54;100.00;101309.88;4986762;28;20052;-82
2023/01/07 01:38:41;;;;;;;23.75;6.20;;;4.20;99.90;;;2.56;100.00;101309.88;5010325;28;20056;-81
2023/01/07 01:41:07;;;;;;;25.33;6.88;;;4.10;99.90;;;2.59;100.00;101309.84;5022858;28;20044;-81
2023/01/07 01:43:40;;;;;;;28.27;6.20;;;4.10;99.90;;;2.59;100.00;101310.75;5020343;28;20026;-79
2023/01/07 01:46:30;;;;;;;22.48;6.43;;;4.10;99.90;;;2.62;100.00;101302.91;5010096;28;20044;-82
2023/01/07 01:49:20;;;;;;;38.25;7.03;;;4.20;99.90;;;2.64;100.00;101306.38;5024922;28;20052;-82
2023/01/07 01:52:01;;;;;;;27.92;5.90;;;4.20;99.90;;;2.65;100.00;101292.50;4992474;28;20037;-82
2023/01/07 01:54:28;;;;;;;26.48;6.15;;;4.20;99.90;;;2.70;100.00;101294.22;5006736;28;20037;-81
2023/01/07 01:56:56;;;;;;;36.88;7.03;;;4.20;99.90;;;2.75;100.00;101297.66;5007026;28;20049;-82
2023/01/07 01:59:37;;;;;;;40.47;6.47;;;4.30;99.90;;;2.75;100.00;101300.28;4989546;28;20080;-81
2023/01/07 02:02:08;;;;;;;22.08;5.35;;;4.30;99.90;;;2.75;100.00;101302.88;4988940;28;20099;-82
2023/01/07 02:04:35;;;;;;;24.65;4.95;;;4.30;99.90;;;2.78;100.00;101303.69;5005898;28;20395;-81
2023/01/07 02:07:11;;;;;;;26.35;5.22;;;4.30;99.90;;;2.81;100.00;101297.63;5005673;28;20053;-82
2023/01/07 02:09:37;;;;;;;26.40;5.32;;;4.40;99.90;;;2.86;100.00;101298.47;4990041;28;20052;-82
2023/01/07 02:12:40;;;;;;;29.58;5.78;;;4.40;99.90;;;2.88;100.00;101294.13;4987429;28;20037;-81
2023/01/07 02:16:01;;;;;;;28.52;5.60;;;4.40;99.90;;;2.86;100.00;101298.47;5018639;28;20716;-82
2023/01/07 02:19:36;;;;;;;33.10;5.82;;;4.40;99.90;;;2.81;100.00;101301.09;5004330;28;20029;-81
2023/01/07 02:22:24;;;;;;;39.50;6.07;;;4.40;99.90;;;2.72;100.00;101295.06;4932264;28;20036;-82
2023/01/07 02:25:20;;;;;;;24.85;5.30;;;4.30;99.90;;;2.67;100.00;101295.94;5019588;28;20030;-81
2023/01/07 02:28:06;;;;;;;21.17;5.70;;;4.30;99.90;;;2.72;100.00;101298.56;4993227;28;20025;-82
2023/01/07 02:31:24;;;;;;;20.60;4.93;;;4.30;99.90;;;2.75;100.00;101287.25;5023636;28;20506;-81
2023/01/07 02:34:26;;;;;;;12.35;4.75;;;4.30;99.90;;;2.73;100.00;101291.59;4995622;28;20033;-81
2023/01/07 02:37:13;;;;;;;28.63;6.10;;;4.20;99.90;;;2.70;100.00;101281.19;5010295;28;20493;-80
2023/01/07 02:40:03;;;;;;;28.08;5.93;;;4.20;99.90;;;2.71;100.00;101281.19;5008157;28;20041;-81
2023/01/07 02:42:58;;;;;;;21.67;5.63;;;4.30;99.90;;;2.71;100.00;101277.75;5006889;28;20078;-80
2023/01/07 02:45:40;;;;;;;30.45;6.28;;;4.30;99.90;;;2.71;100.00;101281.19;5024300;28;20037;-82
2023/01/07 02:48:15;;;;;;;30.48;6.53;;;4.30;99.90;;;2.75;100.00;101282.91;5006881;28;20402;-81
2023/01/07 02:50:41;;;;;;;35.45;5.53;;;4.30;99.90;;;2.72;100.00;101287.25;4992009;28;20446;-79
2023/01/07 02:53:12;;;;;;;24.63;6.20;;;4.30;99.90;;;2.74;100.00;101288.97;4995834;28;20061;-82
2023/01/07 02:56:02;;;;;;;20.40;6.05;;;4.30;99.90;;;2.73;100.00;101274.25;5005876;28;20042;-81
2023/01/07 02:58:50;;;;;;;22.33;5.75;;;4.30;99.90;;;2.74;100.00;101277.72;5022333;28;20049;-82
2023/01/07 03:01:56;;;;;;;22.23;6.57;;;4.30;99.90;;;2.72;100.00;101274.25;5014895;28;20040;-81
2023/01/07 03:05:07;;;;;;;21.25;5.85;;;4.30;99.90;;;2.72;100.00;101271.66;5008443;28;20038;-80
2023/01/07 03:08:00;;;;;;;23.42;6.47;;;4.30;99.90;;;2.70;100.00;101268.19;5006407;28;20026;-80
2023/01/07 03:10:52;;;;;;;30.83;6.53;;;4.30;99.90;;;2.69;100.00;101261.28;5024792;28;20775;-81
2023/01/07 03:13:43;;;;;;;28.33;6.60;;;4.30;99.90;;;2.73;100.00;101273.41;5004367;28;20426;-82
2023/01/07 03:16:24;;;;;;;26.50;5.72;;;4.30;99.90;;;2.77;100.00;101267.31;5005884;28;20402;-81
2023/01/07 03:19:10;;;;;;;25.98;6.22;;;4.30;99.90;;;2.80;100.00;101290.69;5008340;28;20057;-81
2023/01/07 03:21:36;;;;;;;30.45;6.45;;;4.40;99.90;;;2.81;100.00;101284.63;5007798;28;20064;-81
2023/01/07 03:24:06;;;;;;;22.38;6.63;;;4.40;99.90;;;2.80;100.00;101282.88;4989377;28;20067;-79
2023/01/07 03:26:43;;;;;;;24.77;6.28;;;4.40;99.90;;;2.81;100.00;101282.88;5007165;28;20026;-80
2023/01/07 03:29:13;;;;;;;26.50;7.20;;;4.40;99.90;;;2.83;100.00;101282.84;5005304;28;20501;-80
2023/01/07 03:31:52;;;;;;;28.30;7.10;;;4.30;99.90;;;2.79;100.00;101268.19;5005376;28;20030;-82
2023/01/07 03:34:25;;;;;;;27.08;6.43;;;4.30;99.90;;;2.78;100.00;101280.28;5017407;23;20064;-77
2023/01/07 03:36:57;;;;;;;28.55;7.95;;;4.30;99.90;;;2.75;100.00;101274.25;5003538;28;20037;-76
2023/01/07 03:39:30;;;;;;;22.60;6.70;;;4.30;99.90;;;2.73;100.00;101263.84;5005947;28;20043;-77
2023/01/07 03:44:41;;;;;;;34.10;7.80;;;4.20;99.90;;;2.66;100.00;101260.44;5023996;28;20071;-76
2023/01/07 03:47:08;;;;;;;22.38;6.72;;;4.20;99.90;;;2.64;100.00;101264.78;5002664;28;20030;-78
2023/01/07 03:49:35;;;;;;;27.83;7.60;;;4.20;99.90;;;2.60;100.00;101259.59;5024971;28;20037;-78
2023/01/07 03:52:02;;;;;;;19.52;6.65;;;4.10;99.90;;;2.60;100.00;101257.84;5020645;28;20040;-76
2023/01/07 03:54:28;;;;;;;27.08;7.30;;;4.10;99.90;;;2.56;100.00;101253.53;5006442;28;20025;-77
2023/01/07 03:56:53;;;;;;;30.33;8.00;;;4.10;99.90;;;2.54;100.00;101257.88;5023044;28;20033;-78
2023/01/07 03:59:19;;;;;;;24.95;7.95;;;4.10;99.90;;;2.52;100.00;101249.22;5019951;28;20132;-78
2023/01/07 04:01:45;;;;;;;27.42;8.15;;;4.10;99.90;;;2.47;100.00;101244.06;5024383;28;20449;-78
2023/01/07 04:04:11;;;;;;;25.88;7.40;;;4.00;99.90;;;2.45;100.00;101239.75;5021079;28;20033;-77
2023/01/07 04:06:39;;;;;;;32.88;8.30;;;4.00;99.90;;;2.40;100.00;101233.72;5004892;28;20040;-77
2023/01/07 04:09:05;;;;;;;32.97;10.40;;;4.00;99.90;;;2.37;100.00;101228.50;5021637;28;20029;-78
2023/01/07 04:11:30;;;;;;;37.05;8.80;;;3.90;99.90;;;2.39;100.00;101226.78;5022590;28;20048;-76
2023/01/07 04:13:59;;;;;;;27.67;8.57;;;4.00;99.90;;;2.38;100.00;101225.06;5021415;28;20112;-77
2023/01/07 04:16:32;;;;;;;32.85;8.65;;;3.90;99.90;;;2.35;100.00;101222.47;5021282;28;20476;-78
2023/01/07 04:18:58;;;;;;;43.05;9.18;;;3.90;99.90;;;2.31;100.00;101218.13;5039327;28;20041;-77
2023/01/07 04:21:24;;;;;;;38.92;8.38;;;3.90;99.90;;;2.19;100.00;101209.53;5023573;28;20051;-77
2023/01/07 04:23:50;;;;;;;42.78;10.23;;;3.80;99.90;;;2.11;100.00;101202.66;5021253;28;20039;-76
2023/01/07 04:26:16;;;;;;;27.20;8.50;;;3.80;99.90;;;2.09;100.00;101197.44;5039518;28;20044;-78
2023/01/07 04:28:49;;;;;;;29.88;8.90;;;3.70;99.90;;;2.11;100.00;101200.91;5006269;28;20083;-77
2023/01/07 04:31:15;;;;;;;33.60;8.85;;;3.80;99.90;;;2.10;100.00;101217.38;5021323;28;20037;-78
2023/01/07 04:33:41;;;;;;;37.67;9.40;;;3.80;99.90;;;2.15;100.00;101207.81;5004842;28;20056;-77
2023/01/07 04:36:07;;;;;;;39.63;9.63;;;3.80;99.90;;;2.16;100.00;101208.69;5019162;28;20067;-77
2023/01/07 04:38:43;;;;;;;32.75;9.52;;;3.80;99.90;;;2.13;100.00;101199.16;5022925;28;20033;-78
2023/01/07 04:41:09;;;;;;;33.17;10.20;;;3.80;99.90;;;2.08;100.00;101200.94;5023271;28;20088;-78
2023/01/07 04:43:35;;;;;;;34.78;9.20;;;3.80;99.90;;;2.04;100.00;101194.03;5040455;28;20126;-78
2023/01/07 04:46:10;;;;;;;46.08;10.55;;;3.70;99.90;;;1.99;100.00;101188.84;5039376;28;20020;-77
2023/01/07 04:48:35;;;;;;;34.25;10.27;;;3.60;99.90;;;1.98;100.00;101189.69;5037648;28;20037;-78
2023/01/07 04:51:01;;;;;;;32.85;10.10;;;3.70;99.90;;;1.95;100.00;101188.88;5022450;28;20503;-78
2023/01/07 04:53:27;;;;;;;47.78;10.88;;;3.60;99.90;;;1.93;100.00;101193.19;5004050;28;20082;-78
2023/01/07 04:55:53;;;;;;;43.03;11.25;;;3.50;99.90;;;1.89;100.00;101196.69;5011073;28;20029;-78
2023/01/07 04:58:19;;;;;;;46.25;11.52;;;3.50;99.90;;;1.87;100.00;101203.59;5006255;28;20037;-78
2023/01/07 05:00:49;;;;;;;78.93;14.25;;;3.50;99.90;;;1.78;100.00;101200.16;5020971;28;20485;-78
2023/01/07 05:03:15;;;;;;;72.45;12.40;;;3.40;99.90;;;1.76;100.00;101204.50;5016458;28;20074;-78
2023/01/07 05:05:40;;;;;;;39.45;10.32;;;3.40;99.90;;;1.73;100.00;101203.63;5022601;28;20112;-77
2023/01/07 05:08:06;;;;;;;47.58;13.07;;;2.70;99.90;;;1.59;100.00;101198.47;5005459;28;20031;-78
2023/01/07 05:10:32;;;;;;;68.40;13.88;;;3.30;99.90;;;1.63;100.00;101202.78;5005911;28;20124;-77
2023/01/07 05:13:12;;;;;;;36.97;11.43;;;3.30;99.90;;;1.70;100.00;101191.53;5027183;28;20584;-78
2023/01/07 05:15:41;;;;;;;41.63;12.23;;;3.30;99.90;;;1.75;100.00;101195.00;5024185;28;20124;-78
2023/01/07 05:18:09;;;;;;;42.38;12.85;;;3.30;99.90;;;1.79;100.00;101183.72;5018424;28;20040;-78
2023/01/07 05:20:35;;;;;;;44.95;14.80;;;3.40;99.90;;;1.79;100.00;101183.72;5020217;28;20140;-77
2023/01/07 05:23:01;;;;;;;57.40;15.32;;;3.40;99.90;;;1.78;100.00;101186.31;5022636;28;20697;-77
2023/01/07 05:25:26;;;;;;;41.70;13.80;;;3.40;99.90;;;1.78;100.00;101192.38;5005125;28;20029;-78
2023/01/07 05:27:52;;;;;;;56.42;16.13;;;3.40;99.90;;;1.76;100.00;101194.09;5021125;28;20554;-77
2023/01/07 05:30:18;;;;;;;52.08;15.15;;;3.50;99.90;;;1.81;100.00;101197.56;5020392;28;20120;-77
2023/01/07 05:32:48;;;;;;;68.88;15.60;;;3.50;99.90;;;1.87;100.00;101206.19;5020664;28;20033;-77
2023/01/07 05:35:14;;;;;;;54.13;15.95;;;3.50;99.90;;;1.92;100.00;101201.84;5005704;28;20102;-78
2023/01/07 05:37:40;;;;;;;55.05;16.67;;;3.50;99.90;;;1.94;100.00;101202.69;5020912;28;20502;-77
2023/01/07 05:40:07;;;;;;;63.00;18.25;;;3.60;99.90;;;1.97;100.00;101197.53;5021256;28;20036;-78
2023/01/07 05:42:33;;;;;;;62.03;17.77;;;3.60;99.90;;;2.04;100.00;101205.25;5004545;28;20047;-77
2023/01/07 05:45:08;;;;;;;60.67;18.08;;;3.60;99.90;;;2.08;100.00;101197.47;5023548;28;20100;-78
2023/01/07 05:47:33;;;;;;;60.25;17.83;;;3.70;99.90;;;2.10;100.00;101194.00;5021753;28;20032;-77
2023/01/07 05:49:59;;;;;;;63.35;17.95;;;3.70;99.90;;;2.10;100.00;101186.19;5021714;28;20601;-77
2023/01/07 05:52:25;;;;;;;68.18;19.42;;;3.70;99.90;;;2.11;100.00;101192.25;5021277;28;20095;-78
2023/01/07 05:55:00;;;;;;;81.85;19.83;;;3.70;99.90;;;2.11;100.00;101185.31;5024678;28;20108;-78
2023/01/07 05:57:25;;;;;;;92.20;20.75;;;3.70;99.90;;;2.10;100.00;101193.13;5003446;28;20025;-78
2023/01/07 05:59:51;;;;;;;142.70;22.63;;;3.70;99.90;;;2.04;100.00;101188.81;5003703;28;20166;-77
2023/01/07 06:02:17;;;;;;;175.95;22.98;;;3.60;99.90;;;1.96;100.00;101190.56;5020750;28;20030;-78
2023/01/07 06:04:50;;;;;;;86.10;20.67;;;3.60;99.90;;;1.94;100.00;101190.56;5024003;28;20637;-78
2023/01/07 06:07:16;;;;;;;105.90;22.17;;;3.60;99.90;;;1.93;100.00;101201.84;5027052;28;20028;-78
2023/01/07 06:09:42;;;;;;;168.27;24.45;;;3.50;99.90;;;1.84;100.00;101197.56;5008060;28;20128;-77
2023/01/07 06:12:08;;;;;;;189.00;24.08;;;3.50;99.90;;;1.78;100.00;101192.38;5023615;28;20100;-78
2023/01/07 06:14:33;;;;;;;137.25;24.65;;;3.40;99.90;;;1.73;100.00;101193.25;5007426;28;20124;-77
2023/01/07 06:16:59;;;;;;;128.70;24.33;;;3.40;99.90;;;1.70;100.00;101190.66;5040986;28;20136;-77
2023/01/07 06:19:27;;;;;;;137.95;25.58;;;3.40;99.90;;;1.69;100.00;101188.94;5008020;28;20116;-78
2023/01/07 06:21:53;;;;;;;152.00;26.88;;;3.30;99.90;;;1.66;100.00;101184.59;5043516;28;20029;-77
2023/01/07 06:24:19;;;;;;;155.65;25.38;;;3.30;99.90;;;1.65;100.00;101190.69;5009127;28;20124;-77
2023/01/07 06:26:45;;;;;;;133.10;24.33;;;3.30;99.90;;;1.63;100.00;101198.47;5036403;28;20025;-78
2023/01/07 06:29:10;;;;;;;196.38;29.27;;;3.30;99.90;;;1.63;100.00;101190.66;5008363;28;20112;-76
2023/01/07 06:31:36;;;;;;;242.55;30.10;;;3.30;99.90;;;1.59;100.00;101185.50;5006870;28;20090;-78
2023/01/07 06:34:08;;;;;;;163.68;27.48;;;3.30;99.90;;;1.63;100.00;101193.28;5024851;28;20055;-78
2023/01/07 06:36:34;;;;;;;243.13;31.13;;;3.30;99.90;;;1.58;100.00;101195.03;5027964;28;20482;-78
2023/01/07 06:39:00;;;;;;;494.85;38.60;;;3.20;99.90;;;1.52;100.00;101194.19;5008900;28;20079;-77
2023/01/07 06:41:25;;;;;;;199.05;30.08;;;3.20;99.90;;;1.50;100.00;101191.56;5004110;28;20485;-78
2023/01/07 06:43:51;;;;;;;171.40;31.55;;;3.20;99.90;;;1.58;100.00;101200.22;5024267;28;20025;-79
2023/01/07 06:46:17;;;;;;;247.50;34.10;;;3.30;99.90;;;1.63;100.00;101203.66;5023479;28;20032;-78
2023/01/07 06:48:50;;;;;;;225.15;33.00;;;3.30;99.90;;;1.64;100.00;101201.91;5024671;28;20124;-79
2023/01/07 06:51:16;;;;;;;164.60;26.83;;;3.30;99.90;;;1.68;100.00;101203.63;5008313;28;20096;-78
2023/01/07 06:53:42;;;;;;;206.15;32.67;;;3.40;99.90;;;1.71;100.00;101202.78;5007313;28;20231;-77
2023/01/07 06:56:07;;;;;;;157.93;30.55;;;3.40;99.90;;;1.73;100.00;101216.59;5023941;28;20096;-78
2023/01/07 06:58:33;;;;;;;275.58;32.47;;;3.40;99.90;;;1.67;100.00;101208.84;5025070;28;20033;-77
2023/01/07 07:01:06;;;;;;;238.90;34.55;;;3.40;99.90;;;1.73;100.00;101206.22;5009056;28;20515;-78
2023/01/07 07:03:32;;;;;;;511.77;45.60;;;3.40;99.90;;;1.71;100.00;101195.00;5021706;28;20056;-77
2023/01/07 07:05:58;;;;;;;301.45;36.25;;;3.40;99.90;;;1.74;100.00;101193.25;5005415;28;20055;-77
2023/01/07 07:08:24;;;;;;;258.25;35.00;;;3.40;99.90;;;1.78;100.00;101197.56;5023128;28;20029;-77
2023/01/07 07:10:50;;;;;;;277.15;37.15;;;3.40;99.90;;;1.78;100.00;101197.56;5021221;28;20083;-78
2023/01/07 07:13:20;;;;;;;469.00;48.53;;;3.50;99.90;;;1.80;100.00;101190.63;5021347;28;20701;-78
2023/01/07 07:15:48;;;;;;;525.25;59.28;;;3.50;99.90;;;1.85;100.00;101194.06;5040929;28;20041;-78
2023/01/07 07:18:16;;;;;;;538.75;59.03;;;3.50;99.90;;;1.90;100.00;101198.38;5023106;28;20033;-77
2023/01/07 07:20:49;;;;;;;565.78;53.38;;;3.60;99.90;;;1.96;100.00;101193.19;5025215;28;20036;-77
2023/01/07 07:23:15;;;;;;;581.00;45.55;;;3.60;99.90;;;1.95;100.00;101189.72;4999877;28;20626;-78
2023/01/07 07:25:41;;;;;;;777.70;53.25;;;3.60;99.90;;;1.91;100.00;101193.19;4998323;28;20112;-77
2023/01/07 07:28:07;;;;;;;864.95;53.55;;;3.60;99.90;;;1.85;100.00;101188.03;5032382;28;20076;-77
2023/01/07 07:30:36;;;;;;;800.63;48.95;;;3.60;99.90;;;1.90;100.00;101199.28;5032366;28;20033;-77
2023/01/07 07:33:03;;;;;;;596.67;39.88;;;3.60;99.90;;;1.89;100.00;101200.13;5017185;28;20545;-78
2023/01/07 07:35:30;;;;;;;808.22;54.40;;;3.50;99.90;;;1.85;100.00;101203.59;5018449;28;20037;-77
2023/01/07 07:37:56;;;;;;;729.10;50.92;;;3.50;99.90;;;1.92;100.00;101209.63;5014708;28;20441;-79
2023/01/07 07:40:22;;;;;;;535.15;44.13;;;3.60;99.90;;;2.02;100.00;101207.00;5014558;28;20024;-77
2023/01/07 07:42:47;;;;;;;601.10;52.65;;;3.60;99.90;;;2.04;100.00;101200.06;5015424;28;20084;-77
2023/01/07 07:45:19;;;;;;;495.70;43.63;;;3.70;99.90;;;2.05;100.00;101194.03;5016800;28;20118;-77
2023/01/07 07:47:48;;;;;;;492.10;49.47;;;3.70;99.90;;;2.13;100.00;101201.75;5017566;28;20033;-78
2023/01/07 07:50:14;;;;;;;454.38;44.78;;;3.80;99.90;;;2.18;100.00;101192.25;5015345;28;20052;-78
2023/01/07 07:52:40;;;;;;;441.13;44.78;;;3.90;99.90;;;2.24;100.00;101191.31;5012793;28;20029;-77
2023/01/07 07:55:06;;;;;;;423.25;42.60;;;3.90;99.90;;;2.28;100.00;101192.19;5014023;28;21204;-78
2023/01/07 07:57:32;;;;;;;457.80;43.17;;;3.90;99.90;;;2.31;100.00;101184.34;5030893;28;20029;-77
2023/01/07 07:59:57;;;;;;;431.85;42.63;;;4.00;99.90;;;2.33;100.00;101187.81;5013664;28;20104;-78
2023/01/07 08:02:29;;;;;;;424.58;41.17;;;4.00;99.90;;;2.40;100.00;101177.38;5013622;28;20033;-78
2023/01/07 08:04:54;;;;;;;386.23;42.45;;;4.00;99.90;;;2.47;100.00;101180.81;5002985;28;20025;-78
2023/01/07 08:07:20;;;;;;;320.63;41.17;;;4.10;99.90;;;2.52;100.00;101181.63;5014070;28;20140;-77
2023/01/07 08:09:48;;;;;;;278.90;41.78;;;4.10;99.90;;;2.58;100.00;101179.00;5013451;28;20025;-78
2023/01/07 08:12:24;;;;;;;284.17;43.22;;;4.20;99.90;;;2.71;100.00;101181.53;5015232;28;20103;-78
2023/01/07 08:14:49;;;;;;;275.00;43.63;;;4.30;99.90;;;2.79;100.00;101187.56;5015255;28;20040;-78
2023/01/07 08:17:15;;;;;;;269.73;44.85;;;4.40;99.90;;;2.88;100.00;101179.66;5019029;28;20746;-78
2023/01/07 08:19:41;;;;;;;244.43;41.22;;;4.50;99.90;;;3.00;100.00;101176.97;5021855;28;20104;-78
2023/01/07 08:22:09;;;;;;;242.48;43.42;;;4.60;99.90;;;3.07;100.00;101185.59;5002629;28;20159;-78
2023/01/07 08:24:37;;;;;;;223.82;40.50;;;4.60;99.90;;;3.15;100.00;101185.50;5022251;28;20451;-78
2023/01/07 08:27:03;;;;;;;229.68;42.92;;;4.70;99.90;;;3.18;100.00;101190.72;5012858;28;20026;-78
2023/01/07 08:29:29;;;;;;;233.43;43.85;;;4.80;99.90;;;3.24;100.00;101188.91;5004241;28;20444;-78
2023/01/07 08:31:55;;;;;;;214.55;43.00;;;4.80;99.90;;;3.30;100.00;101190.56;5021491;28;20106;-78
2023/01/07 08:34:20;;;;;;;236.80;44.67;;;4.80;99.90;;;3.36;100.00;101184.47;5006845;28;20038;-78
2023/01/07 08:36:46;;;;;;;233.45;44.40;;;4.90;99.90;;;3.45;100.00;101192.19;5024221;28;20100;-78
2023/01/07 08:39:17;;;;;;;207.07;42.08;;;5.00;99.90;;;3.53;100.00;101197.31;5020760;28;20153;-78
2023/01/07 08:41:43;;;;;;;235.77;46.13;;;5.10;99.90;;;3.58;100.00;101187.72;5020212;28;20041;-78
2023/01/07 08:44:09;;;;;;;199.98;43.08;;;5.10;99.90;;;3.60;100.00;101191.16;5020814;28;20029;-78
2023/01/07 08:46:35;;;;;;;186.30;42.00;;;5.20;99.90;;;3.67;100.00;101187.59;5041850;28;20029;-77
2023/01/07 08:49:03;;;;;;;201.73;45.92;;;5.30;99.90;;;3.73;100.00;101182.34;5039266;28;20452;-78
2023/01/07 08:51:36;;;;;;;181.52;43.67;;;5.30;99.90;;;3.79;100.00;101184.88;5006841;28;20048;-75
2023/01/07 08:54:03;;;;;;;243.00;52.58;;;5.40;99.90;;;3.86;100.00;101183.06;5023714;28;20026;-79
2023/01/07 08:56:28;;;;;;;200.73;44.28;;;5.40;99.90;;;3.88;100.00;101187.38;5023251;28;20021;-78
2023/01/07 08:58:54;;;;;;;203.25;45.22;;;5.50;99.90;;;3.97;100.00;101181.19;5021742;28;20123;-78
2023/01/07 09:01:28;;;;;;;212.10;43.03;;;5.50;99.90;;;4.07;100.00;101176.75;5006532;28;20117;-78
2023/01/07 09:03:54;;;;;;;214.38;44.80;;;5.60;99.90;;;4.13;100.00;101181.03;5025335;28;20041;-77
2023/01/07 09:06:22;;;;;;;192.65;43.40;;;5.60;99.90;;;4.14;100.00;101178.38;5023956;28;20037;-77
2023/01/07 09:08:48;;;;;;;186.27;43.95;;;5.70;99.90;;;4.20;100.00;101186.13;5023337;28;20041;-78
2023/01/07 09:11:17;;;;;;;174.20;41.00;;;5.70;99.90;;;4.23;100.00;101182.59;5007713;28;20142;-84
2023/01/07 09:13:43;;;;;;;185.32;43.97;;;5.80;99.90;;;4.25;100.00;101176.50;5007471;28;20049;-76
2023/01/07 09:16:09;;;;;;;179.98;42.20;;;5.80;99.90;;;4.29;100.00;101169.50;5004924;28;20098;-78
2023/01/07 09:18:35;;;;;;;198.48;46.17;;;5.90;99.90;;;4.38;100.00;101166.75;5004545;28;20136;-78
2023/01/07 09:21:01;;;;;;;183.15;43.92;;;5.90;99.90;;;4.45;100.00;101171.03;5021605;28;20041;-78
2023/01/07 09:23:34;;;;;;;175.02;42.97;;;6.00;99.90;;;4.59;100.00;101173.41;5018967;28;20032;-79
2023/01/07 09:26:03;;;;;;;176.18;44.00;;;6.10;99.90;;;4.70;100.00;101168.91;5021564;28;20494;-77
2023/01/07 09:28:29;;;;;;;183.75;44.47;;;6.20;99.90;;;4.80;100.00;101172.25;5019292;28;20162;-78
2023/01/07 09:30:59;;;;;;;180.00;44.72;;;6.30;99.90;;;4.91;100.00;101162.50;5005973;28;20591;-78
2023/01/07 09:33:31;;;;;;;176.93;43.42;;;6.40;99.90;;;5.03;100.00;101165.78;5009343;28;20187;-78
2023/01/07 09:36:05;;;;;;;205.43;47.95;;;6.50;99.90;;;5.18;100.00;101177.72;5005486;28;20048;-77
2023/01/07 09:38:31;;;;;;;181.25;43.25;;;6.60;99.90;;;5.25;100.00;101167.16;5025361;28;20037;-77
2023/01/07 09:41:01;;;;;;;211.32;50.67;;;6.70;99.90;;;5.33;100.00;101160.06;5008253;28;20048;-77
2023/01/07 09:43:37;;;;;;;194.15;47.60;;;6.70;99.90;;;5.40;100.00;101163.41;5041433;28;20037;-77
2023/01/07 09:46:08;;;;;;;203.25;47.03;;;6.80;99.90;;;5.43;100.00;101163.34;5043779;28;20116;-77
2023/01/07 09:48:59;;;;;;;192.52;47.47;;;6.90;99.90;;;5.61;100.00;101164.75;5025208;28;20560;-78
2023/01/07 09:51:37;;;;;;;191.93;47.78;;;7.00;99.90;;;5.66;100.00;101156.81;5008174;28;20046;-76
2023/01/07 09:54:16;;;;;;;159.55;38.63;;;7.10;99.90;;;5.69;100.00;101159.38;5007851;28;20128;-77
2023/01/07 09:56:45;;;;;;;158.15;40.08;;;7.10;99.90;;;5.72;100.00;101162.81;5025824;28;20400;-77
2023/01/07 09:59:18;;;;;;;149.30;39.40;;;7.20;99.90;;;5.79;100.00;101155.69;5025675;28;20452;-77
2023/01/07 10:02:26;;;;;;;165.80;41.53;;;7.20;99.90;;;5.84;100.00;101156.47;5005304;28;20584;-77
2023/01/07 10:05:30;;;;;;;187.48;43.05;;;7.30;99.90;;;5.98;100.00;101156.19;5024482;28;20671;-78
2023/01/07 10:08:27;;;;;;;169.48;41.58;;;7.40;99.90;;;6.01;100.00;101160.53;5023048;28;20039;-77
2023/01/07 10:11:35;;;;;;;162.27;40.80;;;7.40;99.90;;;5.99;100.00;101160.56;5043538;28;20036;-77
2023/01/07 10:14:50;;;;;;;146.23;37.65;;;7.50;99.90;;;6.01;100.00;101153.53;5043180;28;20065;-77
2023/01/07 10:18:00;;;;;;;171.30;40.83;;;7.50;99.90;;;6.04;100.00;101150.00;5024169;28;20404;-77
2023/01/07 10:20:53;;;;;;;148.90;40.67;;;7.60;99.90;;;6.06;100.00;101150.81;4962947;28;20039;-76
2023/01/07 10:23:56;;;;;;;132.80;36.45;;;7.50;99.90;;;6.06;100.00;101150.81;5011194;28;20037;-76
2023/01/07 10:26:45;;;;;;;151.35;39.80;;;7.60;99.90;;;6.11;100.00;101144.63;5014146;28;20045;-77
2023/01/07 10:29:30;;;;;;;119.93;37.00;;;7.60;99.90;;;6.20;100.00;101138.31;5025769;28;20432;-77
2023/01/07 10:32:13;;;;;;;139.45;38.13;;;7.60;99.90;;;6.23;100.00;101135.63;5021631;28;20041;-77